sensor_id;sensor_type;location;lat;lon;timestamp;pressure;altitude;pressure_sealevel;temperature;humidity
82256;BME280;72145;34.434;-117.370;2023-08-31T00:00:19;89512.47;;;33.78;14.93
82256;BME280;72145;34.434;-117.370;2023-08-31T00:00:53;89495.94;;;33.46;15.46
82256;BME280;72145;34.434;-117.370;2023-08-31T00:01:26;89493.94;;;33.47;15.60
82256;BME280;72145;34.434;-117.370;2023-08-31T00:02:00;89487.56;;;33.28;15.54
82256;BME280;72145;34.434;-117.370;2023-08-31T00:02:34;89492.31;;;33.16;15.51
82256;BME280;72145;34.434;-117.370;2023-08-31T00:03:07;89475.38;;;33.53;15.51
82256;BME280;72145;34.434;-117.370;2023-08-31T00:03:42;89479.41;;;33.40;15.87
82256;BME280;72145;34.434;-117.370;2023-08-31T00:04:17;89505.63;;;33.26;16.08
82256;BME280;72145;34.434;-117.370;2023-08-31T00:04:53;89467.94;;;33.14;15.39
82256;BME280;72145;34.434;-117.370;2023-08-31T00:05:27;89474.59;;;33.13;15.28
82256;BME280;72145;34.434;-117.370;2023-08-31T00:06:02;89450.75;;;32.95;15.35
82256;BME280;72145;34.434;-117.370;2023-08-31T00:06:42;89478.31;;;32.94;15.60
82256;BME280;72145;34.434;-117.370;2023-08-31T00:07:17;89482.25;;;33.05;15.49
82256;BME280;72145;34.434;-117.370;2023-08-31T00:07:50;89459.94;;;32.79;15.83
82256;BME280;72145;34.434;-117.370;2023-08-31T00:08:26;89502.63;;;33.20;15.97
82256;BME280;72145;34.434;-117.370;2023-08-31T00:09:00;89491.88;;;32.96;15.37
82256;BME280;72145;34.434;-117.370;2023-08-31T00:09:33;89458.59;;;32.91;15.13
82256;BME280;72145;34.434;-117.370;2023-08-31T00:10:09;89458.88;;;32.84;15.88
82256;BME280;72145;34.434;-117.370;2023-08-31T00:10:45;89482.09;;;32.77;15.65
82256;BME280;72145;34.434;-117.370;2023-08-31T00:11:19;89501.59;;;33.01;15.67
82256;BME280;72145;34.434;-117.370;2023-08-31T00:11:55;89476.47;;;32.73;15.18
82256;BME280;72145;34.434;-117.370;2023-08-31T00:12:31;89496.91;;;33.13;15.43
82256;BME280;72145;34.434;-117.370;2023-08-31T00:13:08;89496.09;;;33.37;15.05
82256;BME280;72145;34.434;-117.370;2023-08-31T00:13:41;89479.28;;;33.24;15.12
82256;BME280;72145;34.434;-117.370;2023-08-31T00:14:18;89487.66;;;33.56;15.55
82256;BME280;72145;34.434;-117.370;2023-08-31T00:14:51;89495.13;;;33.69;15.31
82256;BME280;72145;34.434;-117.370;2023-08-31T00:15:24;89487.69;;;33.30;14.86
82256;BME280;72145;34.434;-117.370;2023-08-31T00:15:57;89500.94;;;33.26;15.15
82256;BME280;72145;34.434;-117.370;2023-08-31T00:16:32;89448.28;;;33.00;15.57
82256;BME280;72145;34.434;-117.370;2023-08-31T00:17:06;89492.47;;;33.32;15.07
82256;BME280;72145;34.434;-117.370;2023-08-31T00:17:39;89491.44;;;33.51;15.49
82256;BME280;72145;34.434;-117.370;2023-08-31T00:18:12;89432.75;;;33.12;16.04
82256;BME280;72145;34.434;-117.370;2023-08-31T00:18:52;89496.34;;;33.55;15.45
82256;BME280;72145;34.434;-117.370;2023-08-31T00:19:25;89506.44;;;33.54;15.91
82256;BME280;72145;34.434;-117.370;2023-08-31T00:19:58;89510.00;;;33.07;15.47
82256;BME280;72145;34.434;-117.370;2023-08-31T00:20:32;89448.28;;;32.62;15.97
82256;BME280;72145;34.434;-117.370;2023-08-31T00:21:07;89362.56;;;31.74;16.10
82256;BME280;72145;34.434;-117.370;2023-08-31T00:21:43;89491.69;;;32.80;15.89
82256;BME280;72145;34.434;-117.370;2023-08-31T00:22:17;89459.28;;;32.43;16.66
82256;BME280;72145;34.434;-117.370;2023-08-31T00:22:50;89416.38;;;32.09;16.19
82256;BME280;72145;34.434;-117.370;2023-08-31T00:23:23;89491.72;;;32.68;16.12
82256;BME280;72145;34.434;-117.370;2023-08-31T00:23:56;89492.91;;;32.65;16.08
82256;BME280;72145;34.434;-117.370;2023-08-31T00:24:29;89395.28;;;31.94;15.76
82256;BME280;72145;34.434;-117.370;2023-08-31T00:25:05;89476.03;;;32.65;15.95
82256;BME280;72145;34.434;-117.370;2023-08-31T00:25:41;89507.44;;;32.60;15.95
82256;BME280;72145;34.434;-117.370;2023-08-31T00:26:18;89497.69;;;32.55;16.61
82256;BME280;72145;34.434;-117.370;2023-08-31T00:26:51;89464.56;;;32.41;17.21
82256;BME280;72145;34.434;-117.370;2023-08-31T00:27:24;89478.59;;;32.63;16.61
82256;BME280;72145;34.434;-117.370;2023-08-31T00:27:57;89490.66;;;32.50;16.41
82256;BME280;72145;34.434;-117.370;2023-08-31T00:28:37;89428.91;;;32.05;16.58
82256;BME280;72145;34.434;-117.370;2023-08-31T00:29:11;89466.09;;;32.32;16.10
82256;BME280;72145;34.434;-117.370;2023-08-31T00:29:47;89408.88;;;32.08;16.45
82256;BME280;72145;34.434;-117.370;2023-08-31T00:30:26;89435.53;;;32.39;16.01
82256;BME280;72145;34.434;-117.370;2023-08-31T00:31:02;89493.94;;;32.48;16.02
82256;BME280;72145;34.434;-117.370;2023-08-31T00:31:38;89483.31;;;32.38;16.67
82256;BME280;72145;34.434;-117.370;2023-08-31T00:32:11;89455.91;;;31.95;15.80
82256;BME280;72145;34.434;-117.370;2023-08-31T00:32:46;89369.31;;;31.39;16.26
82256;BME280;72145;34.434;-117.370;2023-08-31T00:33:25;89512.34;;;32.28;16.03
82256;BME280;72145;34.434;-117.370;2023-08-31T00:33:59;89481.78;;;32.12;16.53
82256;BME280;72145;34.434;-117.370;2023-08-31T00:34:37;89489.88;;;32.24;16.50
82256;BME280;72145;34.434;-117.370;2023-08-31T00:35:10;89470.09;;;32.07;16.42
82256;BME280;72145;34.434;-117.370;2023-08-31T00:35:43;89498.53;;;32.46;16.00
82256;BME280;72145;34.434;-117.370;2023-08-31T00:36:19;89501.34;;;32.60;16.36
82256;BME280;72145;34.434;-117.370;2023-08-31T00:36:52;89482.81;;;32.66;16.40
82256;BME280;72145;34.434;-117.370;2023-08-31T00:37:25;89494.53;;;32.58;15.87
82256;BME280;72145;34.434;-117.370;2023-08-31T00:37:59;89468.19;;;32.33;16.76
82256;BME280;72145;34.434;-117.370;2023-08-31T00:38:33;89468.09;;;32.08;15.73
82256;BME280;72145;34.434;-117.370;2023-08-31T00:39:06;89515.16;;;32.18;15.82
82256;BME280;72145;34.434;-117.370;2023-08-31T00:39:43;89514.44;;;32.30;16.12
82256;BME280;72145;34.434;-117.370;2023-08-31T00:40:16;89469.97;;;32.05;16.29
82256;BME280;72145;34.434;-117.370;2023-08-31T00:40:49;89509.78;;;32.54;16.29
82256;BME280;72145;34.434;-117.370;2023-08-31T00:41:23;89356.03;;;31.53;16.08
82256;BME280;72145;34.434;-117.370;2023-08-31T00:41:56;89498.25;;;32.77;16.38
82256;BME280;72145;34.434;-117.370;2023-08-31T00:42:29;89462.94;;;32.47;15.87
82256;BME280;72145;34.434;-117.370;2023-08-31T00:43:02;89503.31;;;32.59;16.61
82256;BME280;72145;34.434;-117.370;2023-08-31T00:43:35;89504.63;;;32.34;16.10
82256;BME280;72145;34.434;-117.370;2023-08-31T00:44:09;89472.75;;;31.95;16.47
82256;BME280;72145;34.434;-117.370;2023-08-31T00:44:47;89518.19;;;32.25;16.36
82256;BME280;72145;34.434;-117.370;2023-08-31T00:45:26;89500.88;;;32.16;15.96
82256;BME280;72145;34.434;-117.370;2023-08-31T00:46:00;89445.84;;;31.72;16.25
82256;BME280;72145;34.434;-117.370;2023-08-31T00:46:37;89468.06;;;31.96;16.07
82256;BME280;72145;34.434;-117.370;2023-08-31T00:47:11;89434.13;;;31.55;15.96
82256;BME280;72145;34.434;-117.370;2023-08-31T00:47:45;89482.13;;;31.82;16.22
82256;BME280;72145;34.434;-117.370;2023-08-31T00:48:20;89496.31;;;32.18;16.40
82256;BME280;72145;34.434;-117.370;2023-08-31T00:48:54;89473.84;;;32.26;16.33
82256;BME280;72145;34.434;-117.370;2023-08-31T00:49:27;89495.03;;;32.43;16.54
82256;BME280;72145;34.434;-117.370;2023-08-31T00:50:09;89505.19;;;32.21;15.87
82256;BME280;72145;34.434;-117.370;2023-08-31T00:50:47;89497.06;;;31.74;16.10
82256;BME280;72145;34.434;-117.370;2023-08-31T00:51:21;89478.25;;;31.86;16.62
82256;BME280;72145;34.434;-117.370;2023-08-31T00:51:55;89481.53;;;31.96;16.52
82256;BME280;72145;34.434;-117.370;2023-08-31T00:52:30;89416.06;;;31.34;16.16
82256;BME280;72145;34.434;-117.370;2023-08-31T00:53:03;89436.31;;;31.47;16.60
82256;BME280;72145;34.434;-117.370;2023-08-31T00:53:40;89496.38;;;31.85;15.87
82256;BME280;72145;34.434;-117.370;2023-08-31T00:54:14;89508.44;;;31.96;16.22
82256;BME280;72145;34.434;-117.370;2023-08-31T00:54:49;89504.03;;;32.12;16.81
82256;BME280;72145;34.434;-117.370;2023-08-31T00:55:27;89465.03;;;31.90;16.03
82256;BME280;72145;34.434;-117.370;2023-08-31T00:56:03;89480.38;;;31.99;16.23
82256;BME280;72145;34.434;-117.370;2023-08-31T00:56:39;89471.59;;;31.75;16.22
82256;BME280;72145;34.434;-117.370;2023-08-31T00:57:12;89449.47;;;31.65;15.95
82256;BME280;72145;34.434;-117.370;2023-08-31T00:57:46;89516.69;;;32.10;16.05
82256;BME280;72145;34.434;-117.370;2023-08-31T00:58:22;89436.94;;;31.57;15.98
82256;BME280;72145;34.434;-117.370;2023-08-31T00:58:55;89404.97;;;31.28;16.21
82256;BME280;72145;34.434;-117.370;2023-08-31T00:59:28;89499.66;;;31.83;16.01
82256;BME280;72145;34.434;-117.370;2023-08-31T01:00:03;89511.13;;;31.96;16.11
82256;BME280;72145;34.434;-117.370;2023-08-31T01:02:02;89488.91;;;31.95;16.77
82256;BME280;72145;34.434;-117.370;2023-08-31T01:03:42;89496.75;;;31.91;16.79
82256;BME280;72145;34.434;-117.370;2023-08-31T01:04:32;89510.19;;;31.79;16.32
82256;BME280;72145;34.434;-117.370;2023-08-31T01:06:44;89499.88;;;31.76;16.16
82256;BME280;72145;34.434;-117.370;2023-08-31T01:07:59;89482.78;;;31.59;16.90
82256;BME280;72145;34.434;-117.370;2023-08-31T01:10:02;89500.34;;;31.72;16.37
82256;BME280;72145;34.434;-117.370;2023-08-31T01:12:03;89500.78;;;31.57;16.98
82256;BME280;72145;34.434;-117.370;2023-08-31T01:12:58;89487.72;;;31.75;17.22
82256;BME280;72145;34.434;-117.370;2023-08-31T01:13:37;89446.00;;;31.40;16.44
82256;BME280;72145;34.434;-117.370;2023-08-31T01:14:17;89496.56;;;31.54;16.31
82256;BME280;72145;34.434;-117.370;2023-08-31T01:14:57;89384.41;;;30.66;17.18
82256;BME280;72145;34.434;-117.370;2023-08-31T01:15:32;89479.19;;;31.33;16.93
82256;BME280;72145;34.434;-117.370;2023-08-31T01:16:07;89412.38;;;30.84;16.51
82256;BME280;72145;34.434;-117.370;2023-08-31T01:16:42;89499.25;;;31.54;17.13
82256;BME280;72145;34.434;-117.370;2023-08-31T01:17:17;89473.22;;;31.35;17.07
82256;BME280;72145;34.434;-117.370;2023-08-31T01:17:55;89476.78;;;31.49;16.60
82256;BME280;72145;34.434;-117.370;2023-08-31T01:18:31;89369.63;;;30.77;16.42
82256;BME280;72145;34.434;-117.370;2023-08-31T01:20:02;89507.22;;;31.63;16.37
82256;BME280;72145;34.434;-117.370;2023-08-31T01:20:18;89507.22;;;31.52;16.97
82256;BME280;72145;34.434;-117.370;2023-08-31T01:21:21;89450.13;;;31.08;16.38
82256;BME280;72145;34.434;-117.370;2023-08-31T01:22:01;89344.03;;;29.99;16.42
82256;BME280;72145;34.434;-117.370;2023-08-31T01:23:00;89512.22;;;31.24;16.61
82256;BME280;72145;34.434;-117.370;2023-08-31T01:23:55;89467.88;;;31.01;16.23
82256;BME280;72145;34.434;-117.370;2023-08-31T01:24:28;89495.09;;;31.08;16.55
82256;BME280;72145;34.434;-117.370;2023-08-31T01:25:02;89490.56;;;31.10;16.21
82256;BME280;72145;34.434;-117.370;2023-08-31T01:25:46;89384.97;;;30.53;16.60
82256;BME280;72145;34.434;-117.370;2023-08-31T01:26:23;89508.50;;;31.29;16.34
82256;BME280;72145;34.434;-117.370;2023-08-31T01:26:57;89426.34;;;30.71;16.65
82256;BME280;72145;34.434;-117.370;2023-08-31T01:27:31;89512.84;;;31.34;16.29
82256;BME280;72145;34.434;-117.370;2023-08-31T01:28:05;89454.69;;;30.84;15.84
82256;BME280;72145;34.434;-117.370;2023-08-31T01:28:39;89509.69;;;31.26;16.35
82256;BME280;72145;34.434;-117.370;2023-08-31T01:29:13;89477.31;;;31.02;16.07
82256;BME280;72145;34.434;-117.370;2023-08-31T01:29:46;89386.03;;;30.38;16.45
82256;BME280;72145;34.434;-117.370;2023-08-31T01:30:19;89504.44;;;31.40;16.54
82256;BME280;72145;34.434;-117.370;2023-08-31T01:30:56;89510.84;;;31.23;16.25
82256;BME280;72145;34.434;-117.370;2023-08-31T01:31:30;89508.84;;;31.23;16.23
82256;BME280;72145;34.434;-117.370;2023-08-31T01:32:06;89513.72;;;31.15;16.05
82256;BME280;72145;34.434;-117.370;2023-08-31T01:32:48;89456.81;;;30.64;15.95
82256;BME280;72145;34.434;-117.370;2023-08-31T01:33:21;89496.06;;;31.12;16.19
82256;BME280;72145;34.434;-117.370;2023-08-31T01:33:55;89499.00;;;31.16;16.04
82256;BME280;72145;34.434;-117.370;2023-08-31T01:34:28;89489.22;;;31.21;16.15
82256;BME280;72145;34.434;-117.370;2023-08-31T01:35:03;89514.31;;;31.14;16.19
82256;BME280;72145;34.434;-117.370;2023-08-31T01:35:46;89486.09;;;31.03;15.95
82256;BME280;72145;34.434;-117.370;2023-08-31T01:36:30;89512.09;;;31.22;16.07
82256;BME280;72145;34.434;-117.370;2023-08-31T01:37:16;89511.09;;;31.05;15.93
82256;BME280;72145;34.434;-117.370;2023-08-31T01:37:59;89426.69;;;30.44;15.65
82256;BME280;72145;34.434;-117.370;2023-08-31T01:38:35;89471.66;;;30.86;16.17
82256;BME280;72145;34.434;-117.370;2023-08-31T01:39:47;89510.84;;;31.35;16.29
82256;BME280;72145;34.434;-117.370;2023-08-31T01:40:47;89509.69;;;31.59;15.64
82256;BME280;72145;34.434;-117.370;2023-08-31T01:41:17;89494.91;;;31.49;15.69
82256;BME280;72145;34.434;-117.370;2023-08-31T01:41:58;89452.00;;;30.84;16.46
82256;BME280;72145;34.434;-117.370;2023-08-31T01:42:35;89477.84;;;30.67;15.67
82256;BME280;72145;34.434;-117.370;2023-08-31T01:43:12;89449.69;;;30.25;15.45
82256;BME280;72145;34.434;-117.370;2023-08-31T01:43:48;89473.75;;;30.45;15.68
82256;BME280;72145;34.434;-117.370;2023-08-31T01:44:22;89476.13;;;30.72;15.87
82256;BME280;72145;34.434;-117.370;2023-08-31T01:44:57;89464.94;;;30.76;16.72
82256;BME280;72145;34.434;-117.370;2023-08-31T01:45:32;89441.25;;;30.62;15.62
82256;BME280;72145;34.434;-117.370;2023-08-31T01:46:10;89508.81;;;30.90;15.83
82256;BME280;72145;34.434;-117.370;2023-08-31T01:46:46;89498.97;;;30.83;16.02
82256;BME280;72145;34.434;-117.370;2023-08-31T01:47:21;89506.16;;;30.80;16.12
82256;BME280;72145;34.434;-117.370;2023-08-31T01:47:57;89517.63;;;30.81;15.88
82256;BME280;72145;34.434;-117.370;2023-08-31T01:48:41;89507.97;;;30.66;16.06
82256;BME280;72145;34.434;-117.370;2023-08-31T01:49:14;89485.91;;;30.67;16.03
82256;BME280;72145;34.434;-117.370;2023-08-31T01:49:47;89445.09;;;30.59;16.13
82256;BME280;72145;34.434;-117.370;2023-08-31T01:50:20;89446.16;;;30.54;15.88
82256;BME280;72145;34.434;-117.370;2023-08-31T01:50:53;89465.44;;;30.41;15.72
82256;BME280;72145;34.434;-117.370;2023-08-31T01:51:28;89506.56;;;30.65;16.15
82256;BME280;72145;34.434;-117.370;2023-08-31T01:52:01;89480.22;;;30.52;16.20
82256;BME280;72145;34.434;-117.370;2023-08-31T01:52:35;89501.59;;;30.93;15.90
82256;BME280;72145;34.434;-117.370;2023-08-31T01:53:08;89416.88;;;30.05;15.71
82256;BME280;72145;34.434;-117.370;2023-08-31T01:53:41;89503.38;;;30.78;15.81
82256;BME280;72145;34.434;-117.370;2023-08-31T01:54:15;89438.50;;;30.29;15.15
82256;BME280;72145;34.434;-117.370;2023-08-31T01:54:48;89507.59;;;30.60;15.94
82256;BME280;72145;34.434;-117.370;2023-08-31T01:55:23;89430.13;;;30.13;15.33
82256;BME280;72145;34.434;-117.370;2023-08-31T01:55:56;89453.81;;;30.48;14.87
82256;BME280;72145;34.434;-117.370;2023-08-31T01:56:29;89427.81;;;30.19;15.44
82256;BME280;72145;34.434;-117.370;2023-08-31T01:57:02;89426.78;;;30.24;15.54
82256;BME280;72145;34.434;-117.370;2023-08-31T01:57:36;89302.66;;;29.49;15.36
82256;BME280;72145;34.434;-117.370;2023-08-31T01:58:09;89498.88;;;30.71;15.42
82256;BME280;72145;34.434;-117.370;2023-08-31T01:58:45;89477.84;;;30.46;14.75
82256;BME280;72145;34.434;-117.370;2023-08-31T01:59:18;89493.94;;;30.46;15.21
82256;BME280;72145;34.434;-117.370;2023-08-31T01:59:51;89407.03;;;29.98;15.32
82256;BME280;72145;34.434;-117.370;2023-08-31T02:00:25;89444.44;;;30.27;15.45
82256;BME280;72145;34.434;-117.370;2023-08-31T02:00:59;89490.81;;;30.71;15.26
82256;BME280;72145;34.434;-117.370;2023-08-31T02:01:35;89463.59;;;30.43;15.69
82256;BME280;72145;34.434;-117.370;2023-08-31T02:02:08;89476.25;;;30.53;15.17
82256;BME280;72145;34.434;-117.370;2023-08-31T02:02:42;89431.63;;;29.95;15.81
82256;BME280;72145;34.434;-117.370;2023-08-31T02:03:15;89442.69;;;30.10;15.12
82256;BME280;72145;34.434;-117.370;2023-08-31T02:03:49;89496.53;;;30.34;15.36
82256;BME280;72145;34.434;-117.370;2023-08-31T02:04:23;89474.06;;;30.08;15.70
82256;BME280;72145;34.434;-117.370;2023-08-31T02:04:56;89489.97;;;30.16;15.56
82256;BME280;72145;34.434;-117.370;2023-08-31T02:05:29;89479.44;;;30.08;15.64
82256;BME280;72145;34.434;-117.370;2023-08-31T02:06:03;89406.81;;;29.43;15.44
82256;BME280;72145;34.434;-117.370;2023-08-31T02:06:41;89404.69;;;29.51;15.68
82256;BME280;72145;34.434;-117.370;2023-08-31T02:07:14;89482.50;;;30.14;15.41
82256;BME280;72145;34.434;-117.370;2023-08-31T02:07:47;89468.31;;;30.02;15.67
82256;BME280;72145;34.434;-117.370;2023-08-31T02:08:20;89486.50;;;30.03;16.03
82256;BME280;72145;34.434;-117.370;2023-08-31T02:08:53;89475.00;;;29.91;15.65
82256;BME280;72145;34.434;-117.370;2023-08-31T02:09:27;89433.00;;;29.64;15.79
82256;BME280;72145;34.434;-117.370;2023-08-31T02:10:00;89488.03;;;30.06;15.57
82256;BME280;72145;34.434;-117.370;2023-08-31T02:10:33;89480.53;;;30.15;15.50
82256;BME280;72145;34.434;-117.370;2023-08-31T02:11:07;89453.09;;;29.95;15.32
82256;BME280;72145;34.434;-117.370;2023-08-31T02:11:40;89467.16;;;30.05;15.96
82256;BME280;72145;34.434;-117.370;2023-08-31T02:12:13;89445.78;;;29.85;15.75
82256;BME280;72145;34.434;-117.370;2023-08-31T02:12:49;89467.09;;;29.83;15.78
82256;BME280;72145;34.434;-117.370;2023-08-31T02:13:22;89487.56;;;29.88;16.02
82256;BME280;72145;34.434;-117.370;2023-08-31T02:13:56;89466.19;;;29.59;15.94
82256;BME280;72145;34.434;-117.370;2023-08-31T02:14:32;89460.25;;;29.61;15.78
82256;BME280;72145;34.434;-117.370;2023-08-31T02:15:06;89484.25;;;30.00;15.84
82256;BME280;72145;34.434;-117.370;2023-08-31T02:15:39;89424.09;;;29.62;15.81
82256;BME280;72145;34.434;-117.370;2023-08-31T02:16:13;89486.31;;;29.80;16.14
82256;BME280;72145;34.434;-117.370;2023-08-31T02:16:46;89487.44;;;29.86;16.11
82256;BME280;72145;34.434;-117.370;2023-08-31T02:17:19;89493.53;;;29.77;15.92
82256;BME280;72145;34.434;-117.370;2023-08-31T02:17:53;89439.16;;;29.35;16.08
82256;BME280;72145;34.434;-117.370;2023-08-31T02:18:30;89474.75;;;29.67;16.15
82256;BME280;72145;34.434;-117.370;2023-08-31T02:19:03;89486.06;;;29.76;15.83
82256;BME280;72145;34.434;-117.370;2023-08-31T02:19:36;89484.22;;;29.68;16.05
82256;BME280;72145;34.434;-117.370;2023-08-31T02:20:13;89437.88;;;29.36;15.97
82256;BME280;72145;34.434;-117.370;2023-08-31T02:20:47;89489.00;;;29.70;16.29
82256;BME280;72145;34.434;-117.370;2023-08-31T02:21:27;89455.88;;;29.55;16.33
82256;BME280;72145;34.434;-117.370;2023-08-31T02:22:00;89469.69;;;29.62;16.13
82256;BME280;72145;34.434;-117.370;2023-08-31T02:22:34;89349.41;;;28.86;16.36
82256;BME280;72145;34.434;-117.370;2023-08-31T02:23:09;89451.09;;;29.54;16.18
82256;BME280;72145;34.434;-117.370;2023-08-31T02:23:42;89465.56;;;29.70;15.91
82256;BME280;72145;34.434;-117.370;2023-08-31T02:24:16;89457.16;;;29.54;16.27
82256;BME280;72145;34.434;-117.370;2023-08-31T02:24:50;89448.72;;;29.39;16.30
82256;BME280;72145;34.434;-117.370;2023-08-31T02:25:26;89489.56;;;29.78;16.16
82256;BME280;72145;34.434;-117.370;2023-08-31T02:26:00;89492.47;;;29.92;16.33
82256;BME280;72145;34.434;-117.370;2023-08-31T02:26:35;89459.38;;;29.68;15.88
82256;BME280;72145;34.434;-117.370;2023-08-31T02:27:11;89393.63;;;29.06;16.16
82256;BME280;72145;34.434;-117.370;2023-08-31T02:27:44;89487.47;;;29.67;16.49
82256;BME280;72145;34.434;-117.370;2023-08-31T02:28:17;89463.97;;;29.36;16.59
82256;BME280;72145;34.434;-117.370;2023-08-31T02:28:52;89486.34;;;29.60;16.32
82256;BME280;72145;34.434;-117.370;2023-08-31T02:29:25;89468.06;;;29.37;16.65
82256;BME280;72145;34.434;-117.370;2023-08-31T02:29:58;89484.13;;;29.47;16.47
82256;BME280;72145;34.434;-117.370;2023-08-31T02:30:32;89488.50;;;29.52;16.80
82256;BME280;72145;34.434;-117.370;2023-08-31T02:31:05;89459.47;;;29.29;16.75
82256;BME280;72145;34.434;-117.370;2023-08-31T02:31:38;89419.88;;;28.98;16.90
82256;BME280;72145;34.434;-117.370;2023-08-31T02:32:12;89376.22;;;28.56;16.88
82256;BME280;72145;34.434;-117.370;2023-08-31T02:32:45;89487.78;;;29.51;16.79
82256;BME280;72145;34.434;-117.370;2023-08-31T02:33:19;89472.88;;;29.29;16.85
82256;BME280;72145;34.434;-117.370;2023-08-31T02:33:57;89472.59;;;29.25;16.79
82256;BME280;72145;34.434;-117.370;2023-08-31T02:34:32;89485.81;;;29.42;16.52
82256;BME280;72145;34.434;-117.370;2023-08-31T02:35:05;89479.31;;;29.45;16.84
82256;BME280;72145;34.434;-117.370;2023-08-31T02:35:39;89467.94;;;29.25;16.79
82256;BME280;72145;34.434;-117.370;2023-08-31T02:36:15;89491.75;;;29.50;16.75
82256;BME280;72145;34.434;-117.370;2023-08-31T02:36:49;89436.91;;;29.12;16.63
82256;BME280;72145;34.434;-117.370;2023-08-31T02:37:22;89451.31;;;29.07;16.90
82256;BME280;72145;34.434;-117.370;2023-08-31T02:37:55;89487.41;;;29.26;16.87
82256;BME280;72145;34.434;-117.370;2023-08-31T02:38:28;89392.69;;;28.63;17.13
82256;BME280;72145;34.434;-117.370;2023-08-31T02:39:07;89467.66;;;29.31;17.01
82256;BME280;72145;34.434;-117.370;2023-08-31T02:39:40;89475.28;;;29.25;17.13
82256;BME280;72145;34.434;-117.370;2023-08-31T02:40:22;89464.13;;;29.09;16.98
82256;BME280;72145;34.434;-117.370;2023-08-31T02:40:56;89424.97;;;28.94;16.91
82256;BME280;72145;34.434;-117.370;2023-08-31T02:41:29;89485.97;;;29.34;17.08
82256;BME280;72145;34.434;-117.370;2023-08-31T02:42:02;89414.53;;;28.78;16.88
82256;BME280;72145;34.434;-117.370;2023-08-31T02:42:38;89452.03;;;28.98;17.09
82256;BME280;72145;34.434;-117.370;2023-08-31T02:43:14;89488.50;;;29.42;16.83
82256;BME280;72145;34.434;-117.370;2023-08-31T02:43:51;89483.44;;;29.46;16.92
82256;BME280;72145;34.434;-117.370;2023-08-31T02:44:24;89476.97;;;29.30;16.85
82256;BME280;72145;34.434;-117.370;2023-08-31T02:44:57;89454.53;;;29.06;16.78
82256;BME280;72145;34.434;-117.370;2023-08-31T02:45:31;89465.41;;;29.08;16.72
82256;BME280;72145;34.434;-117.370;2023-08-31T02:46:04;89341.81;;;28.14;17.29
82256;BME280;72145;34.434;-117.370;2023-08-31T02:46:38;89262.78;;;27.44;17.34
82256;BME280;72145;34.434;-117.370;2023-08-31T02:47:13;89444.44;;;28.85;17.15
82256;BME280;72145;34.434;-117.370;2023-08-31T02:47:46;89346.34;;;28.11;17.07
82256;BME280;72145;34.434;-117.370;2023-08-31T02:48:23;89377.88;;;28.22;17.00
82256;BME280;72145;34.434;-117.370;2023-08-31T02:49:04;89483.75;;;29.02;17.13
82256;BME280;72145;34.434;-117.370;2023-08-31T02:49:39;89493.34;;;29.14;17.25
82256;BME280;72145;34.434;-117.370;2023-08-31T02:50:12;89464.13;;;28.99;17.06
82256;BME280;72145;34.434;-117.370;2023-08-31T02:50:45;89489.66;;;29.10;17.26
82256;BME280;72145;34.434;-117.370;2023-08-31T02:51:19;89480.63;;;29.05;17.22
82256;BME280;72145;34.434;-117.370;2023-08-31T02:51:54;89361.53;;;28.28;17.30
82256;BME280;72145;34.434;-117.370;2023-08-31T02:52:28;89413.97;;;28.51;17.51
82256;BME280;72145;34.434;-117.370;2023-08-31T02:53:05;89487.38;;;29.06;17.29
82256;BME280;72145;34.434;-117.370;2023-08-31T02:53:38;89490.94;;;29.09;17.32
82256;BME280;72145;34.434;-117.370;2023-08-31T02:54:14;89448.63;;;28.68;17.29
82256;BME280;72145;34.434;-117.370;2023-08-31T02:54:53;89430.75;;;28.61;17.33
82256;BME280;72145;34.434;-117.370;2023-08-31T02:55:26;89499.38;;;28.95;17.69
82256;BME280;72145;34.434;-117.370;2023-08-31T02:56:00;89467.81;;;28.74;17.66
82256;BME280;72145;34.434;-117.370;2023-08-31T02:56:33;89491.63;;;29.00;17.68
82256;BME280;72145;34.434;-117.370;2023-08-31T02:57:06;89472.19;;;28.89;17.49
82256;BME280;72145;34.434;-117.370;2023-08-31T02:57:40;89499.25;;;29.03;17.42
82256;BME280;72145;34.434;-117.370;2023-08-31T02:58:18;89496.56;;;29.03;17.57
82256;BME280;72145;34.434;-117.370;2023-08-31T02:58:51;89494.72;;;29.06;17.34
82256;BME280;72145;34.434;-117.370;2023-08-31T02:59:25;89402.41;;;28.38;17.45
82256;BME280;72145;34.434;-117.370;2023-08-31T02:59:58;89498.84;;;29.16;17.54
82256;BME280;72145;34.434;-117.370;2023-08-31T03:00:34;89494.31;;;29.09;17.45
82256;BME280;72145;34.434;-117.370;2023-08-31T03:01:09;89474.56;;;28.95;17.66
82256;BME280;72145;34.434;-117.370;2023-08-31T03:01:44;89273.91;;;27.41;17.78
82256;BME280;72145;34.434;-117.370;2023-08-31T03:02:19;89496.84;;;29.07;17.67
82256;BME280;72145;34.434;-117.370;2023-08-31T03:02:55;89362.22;;;27.99;17.86
82256;BME280;72145;34.434;-117.370;2023-08-31T03:03:28;89494.47;;;29.02;17.75
82256;BME280;72145;34.434;-117.370;2023-08-31T03:04:01;89511.38;;;29.04;17.90
82256;BME280;72145;34.434;-117.370;2023-08-31T03:04:37;89483.03;;;28.62;18.10
82256;BME280;72145;34.434;-117.370;2023-08-31T03:05:13;89457.91;;;28.48;18.46
82256;BME280;72145;34.434;-117.370;2023-08-31T03:05:46;89470.91;;;28.71;18.09
82256;BME280;72145;34.434;-117.370;2023-08-31T03:06:20;89402.09;;;28.25;18.20
82256;BME280;72145;34.434;-117.370;2023-08-31T03:06:53;89510.09;;;28.86;18.30
82256;BME280;72145;34.434;-117.370;2023-08-31T03:07:26;89509.69;;;28.79;18.60
82256;BME280;72145;34.434;-117.370;2023-08-31T03:07:59;89404.88;;;27.97;18.52
82256;BME280;72145;34.434;-117.370;2023-08-31T03:08:32;89510.81;;;28.86;18.39